Time;durP1;ratioP1;P1;durP2;ratioP2;P2;SDS_P1;SDS_P2;PMS_P1;PMS_P2;Temp;Humidity;BMP_temperature;BMP_pressure;BME280_temperature;BME280_humidity;BME280_pressure;Samples;Min_cycle;Max_cycle;Signal;HPM_P1;HPM_P2
2023/01/10 00:00:48;;;;;;;10.07;4.07;;;;;;;;;;5085853;28;20024;-86
2023/01/10 00:03:14;;;;;;;4.93;3.25;;;;;;;;;;5085874;28;20030;-86
2023/01/10 00:05:40;;;;;;;3.85;2.22;;;;;;;;;;5086901;28;20031;-89
2023/01/10 00:08:06;;;;;;;7.63;3.50;;;;;;;;;;5106633;28;20028;-87
2023/01/10 00:10:34;;;;;;;5.00;3.83;;;;;;;;;;5084950;28;20137;-89
2023/01/10 00:15:43;;;;;;;3.78;1.85;;;;;;;;;;5103731;28;20026;-88
2023/01/10 00:18:09;;;;;;;5.70;2.65;;;;;;;;;;5104569;28;20390;-87
2023/01/10 00:20:35;;;;;;;16.15;4.45;;;;;;;;;;5085194;28;20035;-87
2023/01/10 00:23:02;;;;;;;3.80;2.60;;;;;;;;;;5099896;28;20032;-87
2023/01/10 00:25:28;;;;;;;15.13;3.95;;;;;;;;;;5102974;28;20062;-86
2023/01/10 00:30:38;;;;;;;3.15;2.58;;;;;;;;;;5105872;28;20118;-85
2023/01/10 00:33:05;;;;;;;6.97;3.47;;;;;;;;;;5083301;28;20028;-86
2023/01/10 00:35:30;;;;;;;4.22;3.47;;;;;;;;;;5087209;28;20035;-86
2023/01/10 00:38:04;;;;;;;5.47;4.05;;;;;;;;;;5101194;28;20028;-87
2023/01/10 00:40:31;;;;;;;7.35;4.35;;;;;;;;;;5102299;28;20102;-88
2023/01/10 00:45:40;;;;;;;5.95;2.38;;;;;;;;;;5102548;28;20038;-87
2023/01/10 00:48:05;;;;;;;4.95;3.13;;;;;;;;;;5089095;28;20020;-87
2023/01/10 00:50:31;;;;;;;5.10;2.28;;;;;;;;;;5100766;28;20031;-87
2023/01/10 00:52:56;;;;;;;8.90;5.47;;;;;;;;;;5106165;28;20044;-86
2023/01/10 00:55:21;;;;;;;6.47;4.45;;;;;;;;;;5105033;28;20080;-86
2023/01/10 00:57:47;;;;;;;3.90;2.47;;;;;;;;;;5086079;28;20382;-87
2023/01/10 01:00:12;;;;;;;5.43;3.65;;;;;;;;;;5080357;28;20144;-87
2023/01/10 01:02:38;;;;;;;3.50;2.78;;;;;;;;;;5086079;28;20471;-87
2023/01/10 01:05:04;;;;;;;6.28;4.03;;;;;;;;;;5102745;28;20131;-86
2023/01/10 01:07:29;;;;;;;3.95;2.47;;;;;;;;;;5103720;28;20031;-88
2023/01/10 01:12:39;;;;;;;5.55;2.85;;;;;;;;;;5104079;28;20035;-88
2023/01/10 01:15:05;;;;;;;4.50;3.75;;;;;;;;;;5105768;28;20447;-87
2023/01/10 01:17:30;;;;;;;6.30;3.40;;;;;;;;;;5087099;28;20024;-87
2023/01/10 01:19:55;;;;;;;3.70;2.58;;;;;;;;;;5104187;28;20024;-88
2023/01/10 01:22:21;;;;;;;5.13;3.15;;;;;;;;;;5101953;28;20023;-88
2023/01/10 01:24:46;;;;;;;7.03;3.58;;;;;;;;;;5104447;28;20045;-85
2023/01/10 01:27:12;;;;;;;4.55;3.28;;;;;;;;;;5083673;28;20062;-88
2023/01/10 01:29:37;;;;;;;4.55;2.75;;;;;;;;;;5086501;28;20114;-87
2023/01/10 01:32:03;;;;;;;2.92;2.65;;;;;;;;;;5107249;28;20035;-87
2023/01/10 01:34:28;;;;;;;3.38;1.77;;;;;;;;;;5080850;28;20058;-88
2023/01/10 01:36:55;;;;;;;5.72;3.38;;;;;;;;;;5116060;27;20028;-87
2023/01/10 01:39:21;;;;;;;5.35;2.67;;;;;;;;;;5082763;28;20016;-87
2023/01/10 01:41:56;;;;;;;4.03;2.55;;;;;;;;;;5103153;28;20038;-87
2023/01/10 01:44:21;;;;;;;4.72;3.33;;;;;;;;;;5082089;28;20034;-89
2023/01/10 01:47:16;;;;;;;4.78;3.42;;;;;;;;;;5103175;28;20020;-88
2023/01/10 01:49:44;;;;;;;7.63;2.97;;;;;;;;;;5084500;28;20053;-87
2023/01/10 01:52:28;;;;;;;2.70;2.03;;;;;;;;;;5083834;28;20101;-87
2023/01/10 01:54:57;;;;;;;3.50;2.92;;;;;;;;;;5104126;28;20023;-87
2023/01/10 01:57:25;;;;;;;5.07;3.20;;;;;;;;;;5098262;28;20089;-88
2023/01/10 01:59:53;;;;;;;5.38;3.90;;;;;;;;;;5101873;28;20024;-87
2023/01/10 02:02:24;;;;;;;9.52;3.15;;;;;;;;;;5086482;28;20490;-87
2023/01/10 02:04:53;;;;;;;3.58;1.85;;;;;;;;;;5082181;28;20447;-86
2023/01/10 02:07:20;;;;;;;4.82;2.97;;;;;;;;;;5105890;28;20111;-86
2023/01/10 02:10:08;;;;;;;8.82;3.13;;;;;;;;;;5091810;28;20034;-87
2023/01/10 02:12:34;;;;;;;5.35;2.63;;;;;;;;;;5088093;28;20032;-85
2023/01/10 02:15:01;;;;;;;5.15;3.13;;;;;;;;;;5104067;28;20039;-86
2023/01/10 02:17:27;;;;;;;6.60;2.55;;;;;;;;;;5088259;28;20028;-88
2023/01/10 02:19:56;;;;;;;5.60;3.05;;;;;;;;;;5106076;28;20042;-88
2023/01/10 02:22:59;;;;;;;4.60;2.75;;;;;;;;;;5090185;28;20384;-88
2023/01/10 02:25:46;;;;;;;3.13;2.83;;;;;;;;;;5108739;28;20095;-87
2023/01/10 02:28:42;;;;;;;7.63;3.63;;;;;;;;;;5104479;28;20072;-88
2023/01/10 02:31:42;;;;;;;4.22;2.35;;;;;;;;;;5104981;28;20031;-87
2023/01/10 02:34:13;;;;;;;13.50;3.25;;;;;;;;;;5090789;28;20038;-88
2023/01/10 02:36:47;;;;;;;3.47;1.90;;;;;;;;;;5109129;28;20089;-89
2023/01/10 02:39:28;;;;;;;5.38;3.40;;;;;;;;;;5084732;28;20027;-88
2023/01/10 02:42:22;;;;;;;2.58;2.25;;;;;;;;;;5108545;28;20027;-87
2023/01/10 02:45:22;;;;;;;11.25;4.78;;;;;;;;;;5083805;28;20040;-87
2023/01/10 02:47:47;;;;;;;3.65;2.80;;;;;;;;;;5070913;28;20065;-87
2023/01/10 02:50:40;;;;;;;7.70;4.28;;;;;;;;;;5112386;28;20504;-86
2023/01/10 02:53:31;;;;;;;6.32;3.97;;;;;;;;;;5108652;28;20262;-87
2023/01/10 02:56:31;;;;;;;4.97;2.58;;;;;;;;;;5093349;28;20044;-87
2023/01/10 02:59:40;;;;;;;2.35;2.05;;;;;;;;;;5106485;28;20148;-87
2023/01/10 03:02:20;;;;;;;3.35;3.03;;;;;;;;;;5090790;28;20089;-87
2023/01/10 03:05:08;;;;;;;4.00;2.55;;;;;;;;;;5087631;28;20110;-86
2023/01/10 03:07:52;;;;;;;10.02;4.40;;;;;;;;;;5079623;28;20040;-86
2023/01/10 03:10:24;;;;;;;2.92;1.83;;;;;;;;;;5103177;28;20073;-86
2023/01/10 03:12:59;;;;;;;2.85;1.95;;;;;;;;;;5089877;28;20416;-87
2023/01/10 03:15:30;;;;;;;8.23;4.30;;;;;;;;;;5083276;28;20089;-87
2023/01/10 03:18:00;;;;;;;4.00;3.40;;;;;;;;;;5098451;28;20038;-87
2023/01/10 03:20:27;;;;;;;7.63;4.85;;;;;;;;;;5085721;28;20161;-87
2023/01/10 03:22:54;;;;;;;3.10;2.80;;;;;;;;;;5090082;28;20026;-86
2023/01/10 03:25:25;;;;;;;3.88;2.70;;;;;;;;;;5085680;28;20032;-87
2023/01/10 03:27:53;;;;;;;4.13;3.38;;;;;;;;;;5103192;28;20061;-87
2023/01/10 03:30:25;;;;;;;2.53;1.90;;;;;;;;;;5107547;28;20475;-87
2023/01/10 03:32:53;;;;;;;5.38;2.47;;;;;;;;;;5106459;28;20036;-86
2023/01/10 03:35:21;;;;;;;2.28;2.00;;;;;;;;;;5101809;28;20365;-87
2023/01/10 03:38:07;;;;;;;5.78;3.38;;;;;;;;;;5101527;28;20024;-87
2023/01/10 03:40:37;;;;;;;6.80;5.03;;;;;;;;;;5096634;28;20032;-87
2023/01/10 03:46:03;;;;;;;5.00;3.00;;;;;;;;;;5106209;28;20035;-86
2023/01/10 03:48:33;;;;;;;4.30;2.47;;;;;;;;;;5087577;28;20032;-87
2023/01/10 03:51:03;;;;;;;4.72;2.80;;;;;;;;;;5104103;28;20016;-86
2023/01/10 03:53:29;;;;;;;6.38;2.90;;;;;;;;;;5089327;28;20028;-88
2023/01/10 03:55:55;;;;;;;4.20;2.78;;;;;;;;;;5084957;28;20019;-88
2023/01/10 03:58:20;;;;;;;3.38;2.00;;;;;;;;;;5108992;28;20024;-88
2023/01/10 04:00:47;;;;;;;3.30;2.50;;;;;;;;;;5110587;28;20144;-88
2023/01/10 04:03:12;;;;;;;3.08;2.78;;;;;;;;;;5090843;28;20065;-88
2023/01/10 04:05:38;;;;;;;3.55;3.20;;;;;;;;;;5118991;27;20024;-87
2023/01/10 04:08:03;;;;;;;7.63;3.65;;;;;;;;;;5105804;28;20036;-87
2023/01/10 04:10:29;;;;;;;4.10;3.63;;;;;;;;;;5103721;28;20042;-84
2023/01/10 04:12:58;;;;;;;5.28;3.55;;;;;;;;;;5110499;28;20024;-84
2023/01/10 04:15:23;;;;;;;3.83;2.30;;;;;;;;;;5082392;28;20020;-84
2023/01/10 04:17:49;;;;;;;8.13;3.60;;;;;;;;;;5089561;28;20030;-85
2023/01/10 04:20:14;;;;;;;9.32;4.63;;;;;;;;;;5086722;28;20061;-84
2023/01/10 04:22:40;;;;;;;3.88;3.10;;;;;;;;;;5102570;28;20031;-86
2023/01/10 04:25:06;;;;;;;3.70;2.13;;;;;;;;;;5102126;28;20089;-83
2023/01/10 04:27:31;;;;;;;4.28;2.92;;;;;;;;;;5107995;28;20039;-89
2023/01/10 04:29:56;;;;;;;5.75;2.60;;;;;;;;;;5089836;28;20042;-87
2023/01/10 04:32:22;;;;;;;3.22;2.92;;;;;;;;;;5106535;28;20032;-89
2023/01/10 04:34:47;;;;;;;4.60;2.83;;;;;;;;;;5109732;28;20019;-86
2023/01/10 04:37:13;;;;;;;3.78;2.45;;;;;;;;;;5104235;28;20392;-87
2023/01/10 04:39:38;;;;;;;4.05;3.35;;;;;;;;;;5086679;28;20081;-87
2023/01/10 04:42:04;;;;;;;3.15;2.55;;;;;;;;;;5104993;28;20024;-88
2023/01/10 04:44:29;;;;;;;1.27;1.20;;;;;;;;;;5084643;28;20032;-88
2023/01/10 04:46:55;;;;;;;3.15;2.85;;;;;;;;;;5103732;28;20024;-88
2023/01/10 04:49:20;;;;;;;3.15;2.33;;;;;;;;;;5084706;28;20028;-89
2023/01/10 04:51:46;;;;;;;5.20;2.83;;;;;;;;;;5087652;28;20027;-88
2023/01/10 04:54:11;;;;;;;9.20;2.88;;;;;;;;;;5103920;28;20024;-88
2023/01/10 04:56:37;;;;;;;2.35;2.15;;;;;;;;;;5088536;28;20557;-88
2023/01/10 04:59:05;;;;;;;3.63;2.67;;;;;;;;;;5102324;28;20099;-88
2023/01/10 05:01:30;;;;;;;3.10;1.65;;;;;;;;;;5082355;28;20043;-88
2023/01/10 05:03:56;;;;;;;2.83;2.30;;;;;;;;;;5087295;28;20387;-88
2023/01/10 05:06:23;;;;;;;4.65;2.63;;;;;;;;;;5088832;28;20472;-87
2023/01/10 05:08:48;;;;;;;9.88;4.25;;;;;;;;;;5084241;28;20020;-89
2023/01/10 05:11:14;;;;;;;3.55;2.42;;;;;;;;;;5100269;28;20394;-88
2023/01/10 05:13:40;;;;;;;5.65;3.45;;;;;;;;;;5086707;28;20027;-88
2023/01/10 05:16:06;;;;;;;3.35;2.50;;;;;;;;;;5100373;28;20506;-86
2023/01/10 05:18:32;;;;;;;5.78;2.38;;;;;;;;;;5105224;28;20028;-87
2023/01/10 05:21:08;;;;;;;5.60;3.35;;;;;;;;;;5086177;28;20032;-86
2023/01/10 05:23:33;;;;;;;3.20;2.20;;;;;;;;;;5086082;28;20527;-86
2023/01/10 05:26:09;;;;;;;2.72;2.00;;;;;;;;;;5104587;28;20055;-86
2023/01/10 05:28:34;;;;;;;2.33;2.10;;;;;;;;;;5112777;27;20046;-86
2023/01/10 05:31:00;;;;;;;4.63;1.45;;;;;;;;;;5101483;28;20442;-85
2023/01/10 05:33:25;;;;;;;2.72;1.98;;;;;;;;;;5099946;28;20036;-83
2023/01/10 05:35:50;;;;;;;4.22;3.40;;;;;;;;;;5100887;28;20521;-86
2023/01/10 05:38:16;;;;;;;3.25;2.60;;;;;;;;;;5083059;28;20126;-88
2023/01/10 05:40:41;;;;;;;4.95;3.75;;;;;;;;;;5116971;27;20107;-86
2023/01/10 05:43:06;;;;;;;3.05;2.25;;;;;;;;;;5097652;28;20024;-84
2023/01/10 05:45:32;;;;;;;5.22;2.97;;;;;;;;;;5119055;27;20051;-86
2023/01/10 05:47:57;;;;;;;7.00;2.78;;;;;;;;;;5100202;28;20050;-86
2023/01/10 05:50:23;;;;;;;6.53;4.07;;;;;;;;;;5088497;28;20384;-88
2023/01/10 05:52:48;;;;;;;2.92;2.47;;;;;;;;;;5080911;28;20476;-88
2023/01/10 05:55:13;;;;;;;4.65;3.25;;;;;;;;;;5100561;28;20051;-90
2023/01/10 05:57:39;;;;;;;6.03;3.40;;;;;;;;;;5104323;28;20464;-85
2023/01/10 06:00:05;;;;;;;3.20;2.70;;;;;;;;;;5100450;28;20036;-87
2023/01/10 06:02:31;;;;;;;9.48;3.78;;;;;;;;;;5082987;28;20046;-89
2023/01/10 06:04:57;;;;;;;6.28;4.75;;;;;;;;;;5081439;28;20035;-88
2023/01/10 06:07:22;;;;;;;7.05;4.15;;;;;;;;;;5083546;28;20561;-87
2023/01/10 06:09:50;;;;;;;6.82;3.47;;;;;;;;;;5078150;28;20026;-89
2023/01/10 06:12:17;;;;;;;6.13;3.08;;;;;;;;;;5080328;28;20401;-88
2023/01/10 06:14:43;;;;;;;8.35;3.25;;;;;;;;;;5082265;28;20387;-89
2023/01/10 06:17:09;;;;;;;7.53;3.00;;;;;;;;;;5077662;28;20048;-91
2023/01/10 06:19:34;;;;;;;6.55;3.00;;;;;;;;;;5089434;28;20021;-90
2023/01/10 06:22:00;;;;;;;7.20;3.95;;;;;;;;;;5097619;28;20052;-88
2023/01/10 06:24:25;;;;;;;9.00;5.82;;;;;;;;;;5085971;28;20024;-91
2023/01/10 06:26:50;;;;;;;8.88;3.80;;;;;;;;;;5102682;28;20023;-90
2023/01/10 06:29:16;;;;;;;5.82;4.13;;;;;;;;;;5080575;28;20054;-90
2023/01/10 06:31:41;;;;;;;9.85;2.72;;;;;;;;;;5085033;28;20479;-88
2023/01/10 06:34:07;;;;;;;5.40;3.53;;;;;;;;;;5120689;28;20076;-89
2023/01/10 06:36:32;;;;;;;4.65;3.20;;;;;;;;;;5100446;28;20106;-90
2023/01/10 06:38:57;;;;;;;5.78;2.88;;;;;;;;;;5097287;28;20374;-90
2023/01/10 06:41:23;;;;;;;12.05;4.70;;;;;;;;;;5096042;28;20040;-87
2023/01/10 06:43:49;;;;;;;6.30;3.63;;;;;;;;;;5082251;28;20069;-88
2023/01/10 06:46:16;;;;;;;4.65;3.20;;;;;;;;;;5080329;28;20028;-90
2023/01/10 06:48:44;;;;;;;5.65;3.08;;;;;;;;;;5075463;28;20106;-89
2023/01/10 06:51:14;;;;;;;4.20;2.63;;;;;;;;;;5083753;28;20030;-89
2023/01/10 06:53:40;;;;;;;5.93;3.45;;;;;;;;;;5088952;28;20047;-89
2023/01/10 06:56:06;;;;;;;5.97;3.83;;;;;;;;;;5099802;28;20047;-88
2023/01/10 06:58:32;;;;;;;5.05;3.03;;;;;;;;;;5104999;28;20514;-88
2023/01/10 07:00:57;;;;;;;3.83;2.58;;;;;;;;;;5098517;28;20030;-87
2023/01/10 07:03:23;;;;;;;5.93;3.92;;;;;;;;;;5083789;28;20035;-87
2023/01/10 07:05:54;;;;;;;4.05;2.75;;;;;;;;;;5106124;28;20028;-88
2023/01/10 07:08:23;;;;;;;8.40;3.70;;;;;;;;;;5087562;28;20035;-89
2023/01/10 07:10:48;;;;;;;4.25;3.28;;;;;;;;;;5090498;28;20028;-89
2023/01/10 07:13:13;;;;;;;5.07;3.47;;;;;;;;;;5103927;28;20024;-88
2023/01/10 07:15:39;;;;;;;6.95;3.53;;;;;;;;;;5097547;28;20027;-89
2023/01/10 07:18:04;;;;;;;9.23;4.22;;;;;;;;;;5109213;28;20444;-90
2023/01/10 07:20:29;;;;;;;9.82;5.65;;;;;;;;;;5087697;28;20036;-88
2023/01/10 07:23:01;;;;;;;10.00;5.05;;;;;;;;;;5083208;28;20532;-90
2023/01/10 07:25:27;;;;;;;8.45;5.78;;;;;;;;;;5096787;28;20106;-88
2023/01/10 07:27:56;;;;;;;8.98;4.00;;;;;;;;;;5077062;28;20027;-88
2023/01/10 07:30:23;;;;;;;5.70;3.65;;;;;;;;;;5088313;28;20767;-89
2023/01/10 07:32:56;;;;;;;5.95;4.10;;;;;;;;;;5111328;28;20475;-89
2023/01/10 07:35:24;;;;;;;7.15;4.13;;;;;;;;;;5089942;28;20065;-90
2023/01/10 07:37:49;;;;;;;5.65;3.22;;;;;;;;;;5092854;28;20024;-90
2023/01/10 07:40:15;;;;;;;9.43;5.88;;;;;;;;;;5081690;28;20930;-88
2023/01/10 07:42:40;;;;;;;7.53;4.75;;;;;;;;;;5084982;28;20437;-90
2023/01/10 07:45:07;;;;;;;4.78;3.20;;;;;;;;;;5078525;28;20031;-90
2023/01/10 07:47:33;;;;;;;4.90;3.75;;;;;;;;;;5081215;28;20024;-91
2023/01/10 07:49:58;;;;;;;14.40;4.82;;;;;;;;;;5080515;28;20023;-89
2023/01/10 07:52:23;;;;;;;6.38;5.00;;;;;;;;;;5079882;28;20028;-90
2023/01/10 07:54:49;;;;;;;5.75;3.75;;;;;;;;;;5100746;28;20028;-90
2023/01/10 07:57:14;;;;;;;3.75;2.75;;;;;;;;;;5108854;28;20030;-89
2023/01/10 07:59:40;;;;;;;6.43;3.53;;;;;;;;;;5102876;28;20516;-89
2023/01/10 08:02:05;;;;;;;10.50;6.22;;;;;;;;;;5102594;28;20028;-90
2023/01/10 08:04:31;;;;;;;9.00;4.43;;;;;;;;;;5099100;28;20024;-90
2023/01/10 08:06:56;;;;;;;12.50;4.70;;;;;;;;;;5107860;28;20498;-89
2023/01/10 08:09:21;;;;;;;9.13;4.65;;;;;;;;;;5100508;28;20039;-88
2023/01/10 08:11:47;;;;;;;11.73;6.85;;;;;;;;;;5096209;28;20020;-90
2023/01/10 08:14:12;;;;;;;7.78;5.53;;;;;;;;;;5120629;27;20395;-90
2023/01/10 08:16:38;;;;;;;3.58;3.28;;;;;;;;;;5081007;28;20032;-90
2023/01/10 08:19:03;;;;;;;10.80;4.80;;;;;;;;;;5079000;28;20395;-89
2023/01/10 08:21:29;;;;;;;8.20;3.47;;;;;;;;;;5080553;28;20036;-89
2023/01/10 08:23:54;;;;;;;5.78;4.28;;;;;;;;;;5096019;28;20115;-89
2023/01/10 08:26:19;;;;;;;4.47;3.25;;;;;;;;;;5098396;28;20028;-89
2023/01/10 08:28:45;;;;;;;6.55;3.20;;;;;;;;;;5080939;28;20449;-88
2023/01/10 08:31:10;;;;;;;6.28;3.67;;;;;;;;;;5100673;28;20095;-88
2023/01/10 08:33:38;;;;;;;5.63;3.83;;;;;;;;;;5092347;28;20105;-88
2023/01/10 08:36:03;;;;;;;10.15;6.25;;;;;;;;;;5100891;28;20041;-88
2023/01/10 08:38:29;;;;;;;3.58;1.92;;;;;;;;;;5119733;27;20111;-89
2023/01/10 08:40:57;;;;;;;8.18;3.63;;;;;;;;;;5077370;28;20116;-89
2023/01/10 08:43:23;;;;;;;7.72;4.50;;;;;;;;;;5097208;28;20023;-88
2023/01/10 08:45:49;;;;;;;4.00;3.22;;;;;;;;;;5090061;28;20031;-89
2023/01/10 08:48:14;;;;;;;9.32;4.43;;;;;;;;;;5083374;28;20028;-89
2023/01/10 08:50:40;;;;;;;6.97;4.60;;;;;;;;;;5103296;28;20035;-87
2023/01/10 08:53:06;;;;;;;7.85;4.20;;;;;;;;;;5083637;28;20071;-87
2023/01/10 08:55:34;;;;;;;4.82;3.40;;;;;;;;;;5098745;28;20035;-87
2023/01/10 08:58:00;;;;;;;9.23;4.05;;;;;;;;;;5116353;27;20023;-89
2023/01/10 09:00:27;;;;;;;9.18;4.40;;;;;;;;;;5099301;28;20106;-88
2023/01/10 09:02:53;;;;;;;4.70;3.67;;;;;;;;;;5078934;28;20039;-89
2023/01/10 09:05:18;;;;;;;8.85;4.95;;;;;;;;;;5085864;28;20027;-88
2023/01/10 09:07:45;;;;;;;9.75;4.00;;;;;;;;;;5081702;28;20110;-89
2023/01/10 09:10:13;;;;;;;8.10;4.05;;;;;;;;;;5102225;28;20024;-89
2023/01/10 09:12:58;;;;;;;11.68;5.88;;;;;;;;;;5087973;28;20027;-88
2023/01/10 09:15:30;;;;;;;12.73;2.90;;;;;;;;;;5083361;28;20027;-91
2023/01/10 09:17:57;;;;;;;5.05;2.80;;;;;;;;;;5088154;28;20028;-89
2023/01/10 09:20:24;;;;;;;6.18;3.58;;;;;;;;;;5089884;28;20019;-91
2023/01/10 09:22:50;;;;;;;4.28;2.78;;;;;;;;;;5085335;28;20022;-90
2023/01/10 09:25:15;;;;;;;8.27;4.35;;;;;;;;;;5086875;28;20023;-87
2023/01/10 09:27:41;;;;;;;4.38;3.65;;;;;;;;;;5103882;28;20126;-88
2023/01/10 09:30:07;;;;;;;11.25;6.18;;;;;;;;;;5088833;28;20414;-89
2023/01/10 09:32:33;;;;;;;9.90;5.18;;;;;;;;;;5087207;28;20486;-88
2023/01/10 09:34:58;;;;;;;9.27;5.47;;;;;;;;;;5100247;28;20024;-88
2023/01/10 09:37:23;;;;;;;8.82;4.60;;;;;;;;;;5105325;28;20363;-87
2023/01/10 09:40:43;;;;;;;8.13;5.05;;;;;;;;;;5099721;28;20028;-91
2023/01/10 09:43:20;;;;;;;;;;;;;;;;;;4994030;28;20102;-88
2023/01/10 09:45:57;;;;;;;3.10;2.58;;;;;;;;;;5108089;27;19941;-93
2023/01/10 09:48:25;;;;;;;5.45;3.15;;;;;;;;;;5102813;28;20031;-88
2023/01/10 09:51:03;;;;;;;3.20;2.67;;;;;;;;;;5081536;28;20380;-88
2023/01/10 09:53:31;;;;;;;4.97;3.83;;;;;;;;;;5124213;27;20026;-87
2023/01/10 09:56:00;;;;;;;4.78;3.95;;;;;;;;;;5103053;28;20101;-88
2023/01/10 09:58:29;;;;;;;4.25;3.53;;;;;;;;;;5118084;27;20032;-87
2023/01/10 10:01:13;;;;;;;;;;;;;;;;;;5099838;28;20042;-87
2023/01/10 10:03:59;;;;;;;2.85;2.03;;;;;;;;;;5084127;28;19911;-87
2023/01/10 10:06:24;;;;;;;6.38;4.35;;;;;;;;;;5083025;28;20104;-87
2023/01/10 10:08:51;;;;;;;4.72;3.40;;;;;;;;;;5077970;28;20063;-87
2023/01/10 10:11:26;;;;;;;6.90;3.63;;;;;;;;;;5086273;28;20483;-88
2023/01/10 10:14:53;;;;;;;6.10;3.05;;;;;;;;;;5082573;28;20557;-89
2023/01/10 10:17:41;;;;;;;3.38;2.67;;;;;;;;;;5001717;28;20029;-84
2023/01/10 10:20:29;;;;;;;7.97;4.13;;;;;;;;;;5095214;28;20066;-90
2023/01/10 10:23:10;;;;;;;15.38;6.53;;;;;;;;;;5088078;28;20020;-88
2023/01/10 10:26:08;;;;;;;15.73;7.35;;;;;;;;;;5095953;28;20030;-87
2023/01/10 10:28:56;;;;;;;10.15;5.50;;;;;;;;;;5119696;27;20051;-88
2023/01/10 10:31:58;;;;;;;10.68;6.40;;;;;;;;;;5098281;28;20099;-87
2023/01/10 10:34:57;;;;;;;8.70;5.25;;;;;;;;;;5080716;28;20036;-90
2023/01/10 10:37:25;;;;;;;6.10;4.20;;;;;;;;;;5091888;28;20483;-89
2023/01/10 10:40:00;;;;;;;10.20;6.47;;;;;;;;;;5085682;28;20032;-90
2023/01/10 10:42:30;;;;;;;7.50;5.30;;;;;;;;;;5086944;28;20028;-90
2023/01/10 10:45:09;;;;;;;9.38;5.10;;;;;;;;;;5087489;28;20029;-90
2023/01/10 10:47:38;;;;;;;7.10;5.80;;;;;;;;;;5110684;27;20036;-89
2023/01/10 10:50:37;;;;;;;9.52;4.22;;;;;;;;;;5088516;28;20047;-90
2023/01/10 10:53:04;;;;;;;8.32;5.78;;;;;;;;;;5093484;28;20382;-91
2023/01/10 10:55:48;;;;;;;7.22;4.20;;;;;;;;;;5080683;28;20043;-89
2023/01/10 10:58:18;;;;;;;7.50;4.72;;;;;;;;;;5084716;28;20375;-91
2023/01/10 11:00:45;;;;;;;7.95;3.97;;;;;;;;;;5086381;28;20443;-91
2023/01/10 11:03:13;;;;;;;6.32;3.90;;;;;;;;;;5084758;28;20027;-90
2023/01/10 11:05:41;;;;;;;7.72;4.07;;;;;;;;;;5086486;28;20057;-91
2023/01/10 11:08:12;;;;;;;9.80;6.50;;;;;;;;;;5102430;28;20061;-91
2023/01/10 11:11:00;;;;;;;11.15;6.07;;;;;;;;;;5090657;28;20028;-90
2023/01/10 11:13:31;;;;;;;9.18;5.72;;;;;;;;;;5086445;28;20107;-88
2023/01/10 11:15:58;;;;;;;11.57;6.85;;;;;;;;;;5104135;28;20020;-88
2023/01/10 11:18:28;;;;;;;20.52;11.75;;;;;;;;;;5103405;28;20024;-88
2023/01/10 11:21:04;;;;;;;20.17;12.27;;;;;;;;;;5087574;28;20037;-87
2023/01/10 11:23:29;;;;;;;27.67;15.30;;;;;;;;;;5073313;28;20098;-88
2023/01/10 11:25:55;;;;;;;25.25;16.45;;;;;;;;;;5084182;28;20032;-88
2023/01/10 11:28:24;;;;;;;16.67;12.15;;;;;;;;;;5080522;28;20047;-89
2023/01/10 11:30:51;;;;;;;14.38;8.93;;;;;;;;;;5082083;28;20073;-89
2023/01/10 11:33:22;;;;;;;12.05;6.75;;;;;;;;;;5077033;28;20107;-89
2023/01/10 11:36:08;;;;;;;16.50;9.60;;;;;;;;;;5080842;28;20032;-87
2023/01/10 11:38:34;;;;;;;19.98;13.45;;;;;;;;;;5082626;28;20035;-88
2023/01/10 11:41:02;;;;;;;17.98;13.45;;;;;;;;;;5081483;28;20460;-90
2023/01/10 11:43:34;;;;;;;12.02;9.02;;;;;;;;;;5084286;28;20032;-89
2023/01/10 11:46:24;;;;;;;16.63;9.75;;;;;;;;;;5086540;28;20021;-91
2023/01/10 11:49:05;;;;;;;10.65;6.85;;;;;;;;;;5114383;27;20048;-90
2023/01/10 11:51:34;;;;;;;17.27;8.73;;;;;;;;;;5084051;28;20032;-89
2023/01/10 11:54:05;;;;;;;15.57;9.90;;;;;;;;;;5079922;28;20032;-87
2023/01/10 11:56:34;;;;;;;16.00;9.02;;;;;;;;;;5083584;28;20020;-88
2023/01/10 11:59:11;;;;;;;16.20;10.80;;;;;;;;;;5079651;28;20026;-87
2023/01/10 12:01:44;;;;;;;14.82;9.90;;;;;;;;;;5082436;28;20024;-88
2023/01/10 12:04:19;;;;;;;12.40;7.88;;;;;;;;;;5079829;28;20492;-89
2023/01/10 12:06:49;;;;;;;11.43;8.07;;;;;;;;;;5079285;28;20092;-88
2023/01/10 12:09:35;;;;;;;14.57;7.93;;;;;;;;;;5084968;28;20043;-90
2023/01/10 12:12:03;;;;;;;13.48;7.43;;;;;;;;;;5081334;28;20029;-88
2023/01/10 12:14:29;;;;;;;10.05;7.30;;;;;;;;;;5084026;28;20021;-91
2023/01/10 12:16:59;;;;;;;17.90;8.05;;;;;;;;;;5118093;27;20019;-86
2023/01/10 12:19:27;;;;;;;19.65;7.22;;;;;;;;;;5084496;28;20028;-88
2023/01/10 12:21:54;;;;;;;7.47;5.47;;;;;;;;;;5084328;28;20038;-89
2023/01/10 12:24:28;;;;;;;10.00;6.35;;;;;;;;;;5079254;28;20110;-88
2023/01/10 12:26:54;;;;;;;10.75;5.05;;;;;;;;;;5079811;28;20460;-88
2023/01/10 12:29:30;;;;;;;10.35;6.25;;;;;;;;;;5093011;28;20047;-88
2023/01/10 12:31:58;;;;;;;8.38;5.57;;;;;;;;;;5080246;28;20023;-88
2023/01/10 12:34:40;;;;;;;9.25;5.93;;;;;;;;;;5097608;28;20104;-86
2023/01/10 12:37:39;;;;;;;6.80;5.18;;;;;;;;;;5096854;28;20019;-88
2023/01/10 12:40:14;;;;;;;9.93;5.70;;;;;;;;;;5102805;28;20495;-87
2023/01/10 12:45:43;;;;;;;12.45;5.22;;;;;;;;;;5105828;28;20061;-88
2023/01/10 12:48:41;;;;;;;14.63;5.82;;;;;;;;;;5104068;28;20035;-89
2023/01/10 12:51:13;;;;;;;5.35;3.60;;;;;;;;;;5102212;28;20032;-89
2023/01/10 12:53:54;;;;;;;7.93;5.07;;;;;;;;;;5084009;28;20031;-88
2023/01/10 12:56:20;;;;;;;10.05;5.85;;;;;;;;;;5086325;28;20019;-88
2023/01/10 12:59:00;;;;;;;5.68;3.35;;;;;;;;;;5083456;28;20463;-88
2023/01/10 13:01:33;;;;;;;6.80;4.30;;;;;;;;;;5110535;27;20050;-87
2023/01/10 13:04:09;;;;;;;6.30;4.47;;;;;;;;;;5083605;28;20020;-89
2023/01/10 13:06:37;;;;;;;8.98;5.03;;;;;;;;;;5080468;28;20035;-88
2023/01/10 13:09:07;;;;;;;8.82;4.28;;;;;;;;;;5100524;28;20061;-88
2023/01/10 13:11:36;;;;;;;;;;;;;;;;;;5083970;28;20467;-88
2023/01/10 13:14:03;;;;;;;9.05;3.75;;;;;;;;;;5081418;28;19982;-88
2023/01/10 13:16:47;;;;;;;3.80;2.85;;;;;;;;;;5081679;28;20050;-89
2023/01/10 13:19:13;;;;;;;7.93;4.88;;;;;;;;;;5101010;28;20032;-87
2023/01/10 13:21:40;;;;;;;9.15;5.10;;;;;;;;;;5103269;28;20049;-88
2023/01/10 13:24:25;;;;;;;11.80;5.00;;;;;;;;;;5085495;28;20019;-89
2023/01/10 13:26:55;;;;;;;9.00;5.20;;;;;;;;;;5080675;28;20391;-88
2023/01/10 13:29:26;;;;;;;6.68;3.90;;;;;;;;;;5095792;28;20050;-88
2023/01/10 13:31:56;;;;;;;7.28;4.25;;;;;;;;;;5100239;28;20027;-88
2023/01/10 13:34:31;;;;;;;6.72;5.07;;;;;;;;;;5103566;28;20072;-89
2023/01/10 13:37:01;;;;;;;2.78;2.53;;;;;;;;;;5102054;28;20797;-89
2023/01/10 13:39:33;;;;;;;7.65;4.00;;;;;;;;;;5080766;28;20047;-88
2023/01/10 13:45:00;;;;;;;10.25;4.93;;;;;;;;;;5102102;28;20050;-89
2023/01/10 13:47:38;;;;;;;5.45;4.15;;;;;;;;;;5082099;28;20063;-88
2023/01/10 13:50:27;;;;;;;4.53;3.42;;;;;;;;;;5086994;28;20487;-90
2023/01/10 13:53:03;;;;;;;5.72;3.70;;;;;;;;;;5082893;28;20024;-88
2023/01/10 13:55:37;;;;;;;3.83;2.97;;;;;;;;;;5084843;28;20073;-89
2023/01/10 13:58:14;;;;;;;5.50;3.25;;;;;;;;;;5119192;27;20567;-89
2023/01/10 14:04:32;;;;;;;3.55;2.50;;;;;;;;;;5091549;28;20119;-90
2023/01/10 14:07:48;;;;;;;5.15;3.70;;;;;;;;;;5040639;28;20036;-90
2023/01/10 14:25:09;;;;;;;;;;;;;;;;;;;;;
2023/01/10 14:27:57;;;;;;;;;;;;;;;;;;;;;
2023/01/10 14:35:05;;;;;;;3.17;1.67;;;;;;;;;;4821159;29;20045;-90
2023/01/10 14:44:57;;;;;;;2.90;2.20;;;;;;;;;;4803952;29;20123;-88
2023/01/10 14:47:29;;;;;;;2.47;1.20;;;;;;;;;;4812040;29;20039;-87
2023/01/10 14:50:00;;;;;;;1.38;1.27;;;;;;;;;;4927519;28;20076;-88
2023/01/10 14:52:26;;;;;;;4.43;2.25;;;;;;;;;;5016025;28;20536;-87
2023/01/10 14:55:22;;;;;;;1.95;1.65;;;;;;;;;;5096264;28;20114;-87
2023/01/10 14:58:26;;;;;;;;;;;;;;;;;;;;;
2023/01/10 15:01:22;;;;;;;3.83;2.05;;;;;;;;;;5013121;28;20487;-88
2023/01/10 15:03:48;;;;;;;2.05;1.85;;;;;;;;;;5083529;28;20127;-92
2023/01/10 15:06:26;;;;;;;2.22;1.02;;;;;;;;;;5099768;28;20498;-89
2023/01/10 15:08:59;;;;;;;2.28;2.00;;;;;;;;;;5078404;28;20763;-89
2023/01/10 15:11:31;;;;;;;1.60;1.50;;;;;;;;;;5080714;28;20039;-94
2023/01/10 15:14:02;;;;;;;1.30;1.20;;;;;;;;;;5090304;28;20027;-90
2023/01/10 15:16:28;;;;;;;8.07;3.67;;;;;;;;;;5085557;28;20028;-93
2023/01/10 15:18:55;;;;;;;1.52;0.98;;;;;;;;;;5085991;28;20038;-90
2023/01/10 15:21:23;;;;;;;2.72;1.65;;;;;;;;;;5084097;28;20070;-90
2023/01/10 15:23:49;;;;;;;6.60;2.40;;;;;;;;;;5098033;28;20024;-89
2023/01/10 15:26:28;;;;;;;4.95;1.95;;;;;;;;;;5084547;28;20118;-89
2023/01/10 15:29:05;;;;;;;3.35;2.10;;;;;;;;;;5078248;28;20097;-89
2023/01/10 15:31:36;;;;;;;1.67;1.35;;;;;;;;;;5083128;28;20050;-88
2023/01/10 15:34:13;;;;;;;3.78;2.08;;;;;;;;;;5085583;28;20467;-88
2023/01/10 15:36:44;;;;;;;3.40;2.67;;;;;;;;;;5085813;28;20039;-88
2023/01/10 15:39:18;;;;;;;4.28;3.10;;;;;;;;;;5101336;28;20055;-89
2023/01/10 15:41:44;;;;;;;4.25;3.85;;;;;;;;;;5086364;28;20020;-88
2023/01/10 15:44:21;;;;;;;4.95;3.47;;;;;;;;;;5100086;28;20035;-88
2023/01/10 15:46:55;;;;;;;3.38;2.83;;;;;;;;;;5076002;28;20494;-89
2023/01/10 15:49:25;;;;;;;9.40;3.40;;;;;;;;;;5087609;28;20384;-89
2023/01/10 15:51:51;;;;;;;3.50;3.03;;;;;;;;;;5082279;28;20027;-89
2023/01/10 15:54:17;;;;;;;3.97;1.70;;;;;;;;;;5091980;28;20024;-85
2023/01/10 15:56:56;;;;;;;1.65;1.15;;;;;;;;;;5077591;28;20069;-89